• Join FlightAware (Why Join?)
  • Login
  • US Flag 
12:02AM EDT


 

Airport Tracker/Info


-or-


 

Live Flight TrackerFlight Track Log ✈ EJA929 ✈ 20-Apr-2014 ✈ KSGR - KPBI

Flight Track Log - Related Links

Times and Time Zones

All times are in EDT time to prevent confusion due to time zone crossing. See the EJA929 flight status page for this flight to view local times or setup timezone preferences in your user account.

Time Position Orientation Groundspeed Altitude Reporting Facility
EDT Latitude Longitude Course Direction KTS MPH feet Rate Location/Type
10:09PM 29.6058 -95.6556 166° South 152 175 1,000  Level Houston Center
10:10PM 29.5583 -95.6422 166° South 185 213 2,700 2,340 Climbing Houston Center
10:11PM 29.5467 -95.6047 110° East 229 264 4,600 2,940 Climbing Houston Center
10:11PM 29.5458 -95.5703 92° East 228 262 5,700 2,400 Climbing Houston Center
10:12PM 29.5444 -95.5356 93° East 266 306 6,800 2,640 Climbing Houston Center
10:12PM 29.5417 -95.4828 93° East 268 308 8,400 2,700 Climbing Houston Center
10:13PM 29.5392 -95.4064 92° East 307 353 10,400 2,160 Climbing Houston Center
10:13PM 29.5417 -95.3861 82° East 299 344 10,600 900 Climbing Houston Center
10:14PM 29.5619 -95.2717 78° East 365 420 11,600 1,200 Climbing Houston Center
10:15PM 29.5803 -95.1611 79° East 387 445 13,100 1,740 Climbing Houston Center
10:16PM 29.6075 -95.0089 78° East 399 459 15,200 1,860 Climbing Houston Center
10:17PM 29.6300 -94.8808 79° East 407 468 16,900 1,620 Climbing Houston Center
10:18PM 29.6522 -94.7489 79° East 417 480 18,500 1,500 Climbing Houston Center
10:19PM 29.6753 -94.6133 79° East 426 490 20,000 1,440 Climbing Houston Center
10:20PM 29.6989 -94.4742 79° East 440 506 21,500 1,560 Climbing Houston Center
10:21PM 29.7194 -94.3294 81° East 457 526 23,200 1,620 Climbing Houston Center
10:22PM 29.7028 -94.1814 97° East 464 534 24,900 1,500 Climbing Houston Center
10:23PM 29.6825 -94.0375 99° East 472 543 26,300 1,380 Climbing Houston Center
10:24PM 29.6519 -93.8867 103° East 484 557 27,800 1,620 Climbing Houston Center
10:25PM 29.6156 -93.7006 103° East 499 574 29,600 1,680 Climbing Houston Center
10:26PM 29.5861 -93.5433 102° East 505 581 31,300 1,680 Climbing Houston Center
10:27PM 29.5547 -93.3836 103° East 510 587 33,100 1,800 Climbing Houston Center
10:28PM 29.5231 -93.2247 103° East 513 590 35,000 960 Climbing Houston Center
10:29PM 29.4900 -93.0572 103° East 539 620 35,100 660 Climbing Houston Center
10:30PM 29.4553 -92.8825 103° East 560 644 36,400 1,440 Climbing Houston Center
10:32PM 29.4208 -92.7131 103° East 556 640 38,100 1,620 Climbing Houston Center
10:33PM 29.3864 -92.5442 103° East 550 633 39,800 1,320 Climbing Houston Center
10:34PM 29.3531 -92.3781 103° East 538 619 40,900 540 Climbing Houston Center
10:35PM 29.3117 -92.1811 104° East 536 617 41,000  Climbing Houston Center
10:36PM 29.2783 -92.0192 103° East 528 608 41,000  Level Houston Center
10:37PM 29.2450 -91.8586 103° East 523 602 41,000  Level Houston Center
10:38PM 29.2131 -91.7075 104° East 520 598 41,000  Level Houston Center
10:39PM 29.1786 -91.5458 104° East 521 600 41,000  Level Houston Center
10:40PM 29.1433 -91.3842 104° East 523 602 41,000  Level Houston Center
10:41PM 29.1097 -91.2211 103° East 526 605 41,000  Level Houston Center
10:42PM 29.0731 -91.0583 104° East 528 608 41,000  Level Houston Center
10:43PM 29.0311 -90.8617 104° East 531 611 41,000  Level Houston Center
10:44PM 28.9953 -90.6975 104° East 535 616 41,000  Level Houston Center
10:45PM 28.9589 -90.5328 104° East 535 616 41,000  Level Houston Center
10:46PM 28.9233 -90.3683 104° East 538 619 41,000  Level Houston Center
10:47PM 28.8861 -90.2028 104° East 538 619 41,000  Level Houston Center
10:48PM 28.8489 -90.0381 104° East 538 619 41,000  Level Houston Center
10:49PM 28.8125 -89.8767 104° East 533 613 41,000  Level Houston Center
10:50PM 28.7744 -89.7122 105° East 534 615 41,000  Level Houston Center
10:51PM 28.7378 -89.5458 104° East 541 623 41,000  Level Houston Center
10:52PM 28.7042 -89.3811 103° East 541 623 41,000  Level Houston Center
10:53PM 28.6617 -89.1842 104° East 536 617 41,000  Level Houston Center
10:54PM 28.6267 -89.0206 104° East 537 618 41,000  Level Houston Center
10:55PM 28.5906 -88.8553 104° East 537 618 41,000  Level Houston Center
10:56PM 28.5553 -88.6922 104° East 537 618 41,000  Level Houston Center
10:57PM 28.5194 -88.5297 104° East 534 615 41,000  Level Houston Center
10:58PM 28.4844 -88.3667 104° East 534 615 41,000  Level Houston Center
10:59PM 28.4483 -88.2044 104° East 531 611 41,000  Level Houston Center
11:00PM 28.4136 -88.0492 104° East 531 611 41,000  Level Houston Center
11:01PM 28.3772 -87.8892 104° East 530 610 41,000  Level Houston Center
11:02PM 28.3339 -87.6944 104° East 530 610 41,000  Level Houston Center
11:03PM 28.2967 -87.5331 105° East 530 610 41,000  Level Houston Center
11:04PM 28.2600 -87.3717 104° East 530 610 41,000  Level Houston Center
11:05PM 28.2236 -87.2108 104° East 530 610 41,000  Level Houston Center
11:06PM 28.1997 -87.1103 105° East 523 602 41,000  Level Jacksonville Center
11:07PM 28.1650 -86.9558 104° East 523 602 41,000  Level Jacksonville Center
11:08PM 28.1242 -86.7917 106° East 529 609 41,000  Level Jacksonville Center
11:09PM 28.0894 -86.6328 104° East 524 603 41,000  Level Jacksonville Center
11:10PM 28.0500 -86.4714 105° East 524 603 41,000  Level Jacksonville Center
11:11PM 28.0106 -86.3103 105° East 524 603 41,000  Level Jacksonville Center
11:12PM 27.9711 -86.1492 105° East 524 603 41,000  Level Jacksonville Center
11:13PM 27.9333 -85.9858 105° East 524 603 41,000  Level Jacksonville Center
11:14PM 27.8931 -85.8344 107° East 524 603 41,000  Level Jacksonville Center
11:16PM 27.8083 -85.4775 105° East 524 603 41,000  Level Miami Center
11:17PM 27.7739 -85.3225 104° East 524 603 41,000  Level Miami Center
11:18PM 27.7292 -85.1575 107° East 531 611 41,000  Level Miami Center
11:19PM 27.6886 -84.9956 106° East 536 617 41,000  Level Miami Center
11:20PM 27.6372 -84.8328 110° East 541 623 41,000  Level Miami Center
11:21PM 27.5919 -84.6703 107° East 541 623 41,000  Level Miami Center
11:22PM 27.5442 -84.5106 109° East 541 623 41,000  Level Miami Center
11:23PM 27.4900 -84.3503 111° Southeast 536 617 41,000  Level Miami Center
11:24PM 27.4481 -84.1933 107° East 536 617 41,000  Level Miami Center
11:25PM 27.4019 -84.0339 108° East 536 617 41,000  Level Miami Center
11:26PM 27.3575 -83.8769 108° East 536 617 41,000  Level Miami Center
11:27PM 27.3108 -83.7175 108° East 536 617 41,000  Level Miami Center
11:28PM 27.2581 -83.5581 110° East 536 617 41,000  Level Miami Center
11:29PM 27.2150 -83.4039 107° East 536 617 41,000  Level Miami Center
11:30PM 27.1656 -83.2472 109° East 531 611 41,000  Level Miami Center
11:31PM 27.1183 -83.0908 109° East 531 611 41,000  Level Miami Center
11:32PM 27.0683 -82.9367 110° East 531 611 41,000 -1,020 Level Miami Center
11:33PM 27.0231 -82.7758 108° East 531 611 39,000 -2,400 Descending Miami Center
11:34PM 26.9764 -82.6339 110° East 541 623 36,200 -2,820 Descending Miami Center
11:35PM 26.9303 -82.4825 109° East 527 606 33,400 -2,820 Descending Miami Center
11:36PM 26.8800 -82.3242 110° East 527 606 30,600 -2,880 Descending Miami Center
11:37PM 26.8275 -82.1633 110° East 540 621 27,700 -2,940 Descending Miami Center
11:38PM 26.7789 -82.0056 109° East 540 621 24,900 -2,880 Descending Miami Center
11:39PM 26.7300 -81.8522 110° East 528 608 22,100 -2,760 Descending Miami Center
11:40PM 26.6911 -81.7089 107° East 505 581 19,400 -2,700 Descending Miami Center
11:41PM 26.7017 -81.5722 85° East 442 509 16,700 -1,920 Descending Miami Center
11:42PM 26.7289 -81.4408 77° East 430 495 15,500 -1,320 Descending Miami Center
11:43PM 26.7564 -81.2953 78° East 430 495 14,000 -1,380 Descending Miami Center
11:44PM 26.7814 -81.1636 78° East 430 495 12,800 -1,260 Descending Miami Center
11:45PM 26.8081 -81.0342 77° East 425 489 11,600 -1,200 Descending Miami Center
11:46PM 26.8281 -80.9186 79° East 425 489 10,400 -840 Descending Miami Center
11:47PM 26.8125 -80.7947 98° East 401 461 10,000 -240 Descending Miami Center
11:48PM 26.7806 -80.6706 106° East 386 444 10,000  Level Miami Center
11:49PM 26.7497 -80.5600 107° East 399 459 10,000 -180 Level Miami Center
11:50PM 26.7233 -80.4478 105° East 364 419 9,700 -1,020 Descending Miami Center
11:51PM 26.7025 -80.3681 106° East 309 356 8,000 -1,800 Descending Miami Center
11:52PM 26.6586 -80.2806 119° Southeast 285 328 6,200 -1,740 Descending Miami Center
11:53PM 26.6161 -80.2192 128° Southeast 280 322 4,600 -1,620 Descending Miami Center
11:54PM 26.5739 -80.1506 125° Southeast 275 316 3,000 -1,560 Descending Miami Center
11:56PM 26.6667 -80.0833 50° Northeast  Level FlightAware Approximate
12:03AM 26.6832 -80.0956 50° Northeast  Level Estimated
12:04AM 26.6832 -80.0956 50° Northeast  Level Estimated
12:05AM 26.6832 -80.0956 50° Northeast  Level Estimated
12:06AM 26.6832 -80.0956 50° Northeast  Level Estimated
12:07AM 26.6832 -80.0956 50° Northeast  Level Estimated